sensor_id;sensor_type;location;lat;lon;timestamp;pressure;altitude;pressure_sealevel;temperature;humidity
69223;BME280;56514;51.816;-0.026;2023-02-12T00:02:34;103237.66;;;10.51;61.61
69223;BME280;56514;51.816;-0.026;2023-02-12T00:05:46;103226.25;;;10.51;61.75
69223;BME280;56514;51.816;-0.026;2023-02-12T00:08:54;103235.88;;;10.52;61.50
69223;BME280;56514;51.816;-0.026;2023-02-12T00:12:04;103238.53;;;10.52;61.95
69223;BME280;56514;51.816;-0.026;2023-02-12T00:15:14;103228.94;;;10.49;61.79
69223;BME280;56514;51.816;-0.026;2023-02-12T00:18:22;103232.59;;;10.44;61.84
69223;BME280;56514;51.816;-0.026;2023-02-12T00:21:31;103247.63;;;10.42;61.61
69223;BME280;56514;51.816;-0.026;2023-02-12T00:24:41;103234.44;;;10.42;61.92
69223;BME280;56514;51.816;-0.026;2023-02-12T00:27:49;103230.03;;;10.41;61.94
69223;BME280;56514;51.816;-0.026;2023-02-12T00:31:03;103234.47;;;10.40;61.59
69223;BME280;56514;51.816;-0.026;2023-02-12T00:34:12;103219.56;;;10.38;61.61
69223;BME280;56514;51.816;-0.026;2023-02-12T00:37:22;103223.09;;;10.38;61.61
69223;BME280;56514;51.816;-0.026;2023-02-12T00:40:31;103229.28;;;10.37;61.83
69223;BME280;56514;51.816;-0.026;2023-02-12T00:43:40;103232.72;;;10.39;62.01
69223;BME280;56514;51.816;-0.026;2023-02-12T00:46:53;103220.34;;;10.41;61.72
69223;BME280;56514;51.816;-0.026;2023-02-12T00:49:38;103219.47;;;10.41;61.59
69223;BME280;56514;51.816;-0.026;2023-02-12T00:52:23;103229.19;;;10.40;61.65
69223;BME280;56514;51.816;-0.026;2023-02-12T00:55:11;103224.72;;;10.42;61.59
69223;BME280;56514;51.816;-0.026;2023-02-12T00:57:56;103220.28;;;10.44;61.93
69223;BME280;56514;51.816;-0.026;2023-02-12T01:00:41;103229.88;;;10.47;61.65
69223;BME280;56514;51.816;-0.026;2023-02-12T01:03:27;103228.94;;;10.49;61.60
69223;BME280;56514;51.816;-0.026;2023-02-12T01:06:11;103230.66;;;10.50;61.46
69223;BME280;56514;51.816;-0.026;2023-02-12T01:08:56;103228.06;;;10.49;61.73
69223;BME280;56514;51.816;-0.026;2023-02-12T01:11:41;103227.19;;;10.48;61.48
69223;BME280;56514;51.816;-0.026;2023-02-12T01:14:27;103235.22;;;10.44;61.69
69223;BME280;56514;51.816;-0.026;2023-02-12T01:17:12;103231.78;;;10.42;61.38
69223;BME280;56514;51.816;-0.026;2023-02-12T01:19:57;103228.22;;;10.43;61.68
69223;BME280;56514;51.816;-0.026;2023-02-12T01:22:43;103233.50;;;10.43;61.57
69223;BME280;56514;51.816;-0.026;2023-02-12T01:25:28;103228.22;;;10.43;61.41
69223;BME280;56514;51.816;-0.026;2023-02-12T01:28:13;103237.13;;;10.40;61.77
69223;BME280;56514;51.816;-0.026;2023-02-12T01:30:58;103225.72;;;10.38;61.63
69223;BME280;56514;51.816;-0.026;2023-02-12T01:33:46;103211.59;;;10.39;61.80
69223;BME280;56514;51.816;-0.026;2023-02-12T01:36:32;103228.31;;;10.40;61.68
69223;BME280;56514;51.816;-0.026;2023-02-12T01:39:17;103233.63;;;10.38;61.75
69223;BME280;56514;51.816;-0.026;2023-02-12T01:42:03;103224.00;;;10.37;62.19
69223;BME280;56514;51.816;-0.026;2023-02-12T01:47:59;103228.31;;;10.40;61.77
69223;BME280;56514;51.816;-0.026;2023-02-12T01:50:45;103216.09;;;10.37;61.59
69223;BME280;56514;51.816;-0.026;2023-02-12T01:53:34;103213.53;;;10.34;61.97
69223;BME280;56514;51.816;-0.026;2023-02-12T01:56:22;103220.56;;;10.34;61.68
69223;BME280;56514;51.816;-0.026;2023-02-12T01:59:08;103222.38;;;10.32;61.84
69223;BME280;56514;51.816;-0.026;2023-02-12T02:01:57;103221.50;;;10.33;61.70
69223;BME280;56514;51.816;-0.026;2023-02-12T02:04:47;103227.56;;;10.35;61.97
69223;BME280;56514;51.816;-0.026;2023-02-12T02:07:34;103239.00;;;10.35;62.14
69223;BME280;56514;51.816;-0.026;2023-02-12T02:10:19;103232.00;;;10.34;61.98
69223;BME280;56514;51.816;-0.026;2023-02-12T02:13:03;103240.75;;;10.35;61.81
69223;BME280;56514;51.816;-0.026;2023-02-12T02:16:24;103246.03;;;10.35;62.04
69223;BME280;56514;51.816;-0.026;2023-02-12T02:34:36;103236.28;;;10.38;61.57
69223;BME280;56514;51.816;-0.026;2023-02-12T02:37:31;103239.84;;;10.37;61.48
69223;BME280;56514;51.816;-0.026;2023-02-12T02:40:23;103230.97;;;10.40;61.25
69223;BME280;56514;51.816;-0.026;2023-02-12T02:43:18;103234.47;;;10.40;61.29
69223;BME280;56514;51.816;-0.026;2023-02-12T02:46:09;103220.44;;;10.38;61.66
69223;BME280;56514;51.816;-0.026;2023-02-12T02:49:23;103224.03;;;10.36;61.45
69223;BME280;56514;51.816;-0.026;2023-02-12T02:52:27;103224.88;;;10.36;61.59
69223;BME280;56514;51.816;-0.026;2023-02-12T02:55:17;103218.81;;;10.34;61.72
69223;BME280;56514;51.816;-0.026;2023-02-12T02:58:08;103217.06;;;10.33;62.00
69223;BME280;56514;51.816;-0.026;2023-02-12T03:04:11;103222.25;;;10.36;61.70
69223;BME280;56514;51.816;-0.026;2023-02-12T03:10:35;103213.41;;;10.39;61.36
69223;BME280;56514;51.816;-0.026;2023-02-12T03:13:26;103209.00;;;10.38;61.79
69223;BME280;56514;51.816;-0.026;2023-02-12T03:16:28;103210.81;;;10.37;62.06
69223;BME280;56514;51.816;-0.026;2023-02-12T03:19:20;103206.38;;;10.38;61.89
69223;BME280;56514;51.816;-0.026;2023-02-12T03:22:38;103205.53;;;10.37;61.61
69223;BME280;56514;51.816;-0.026;2023-02-12T03:28:59;103203.78;;;10.36;61.91
69223;BME280;56514;51.816;-0.026;2023-02-12T03:34:52;103207.38;;;10.34;61.43
69223;BME280;56514;51.816;-0.026;2023-02-12T03:37:49;103200.41;;;10.31;61.42
69223;BME280;56514;51.816;-0.026;2023-02-12T03:40:41;103204.00;;;10.29;61.53
69223;BME280;56514;51.816;-0.026;2023-02-12T03:43:53;103208.44;;;10.28;61.52
69223;BME280;56514;51.816;-0.026;2023-02-12T03:46:49;103201.47;;;10.24;61.45
69223;BME280;56514;51.816;-0.026;2023-02-12T03:50:01;103202.44;;;10.22;61.17
69223;BME280;56514;51.816;-0.026;2023-02-12T03:52:53;103204.16;;;10.23;61.97
69223;BME280;56514;51.816;-0.026;2023-02-12T03:55:41;103196.28;;;10.21;61.69
69223;BME280;56514;51.816;-0.026;2023-02-12T03:58:28;103196.25;;;10.23;61.94
69223;BME280;56514;51.816;-0.026;2023-02-12T04:01:16;103204.16;;;10.23;61.79
69223;BME280;56514;51.816;-0.026;2023-02-12T04:04:03;103207.69;;;10.23;61.79
69223;BME280;56514;51.816;-0.026;2023-02-12T04:06:50;103205.88;;;10.24;61.59
69223;BME280;56514;51.816;-0.026;2023-02-12T04:09:35;103207.63;;;10.25;62.22
69223;BME280;56514;51.816;-0.026;2023-02-12T04:12:49;103225.25;;;10.23;62.12
69223;BME280;56514;51.816;-0.026;2023-02-12T04:15:45;103216.56;;;10.19;61.97
69223;BME280;56514;51.816;-0.026;2023-02-12T04:18:45;103210.41;;;10.20;61.79
69223;BME280;56514;51.816;-0.026;2023-02-12T04:31:54;103226.38;;;10.14;61.84
69223;BME280;56514;51.816;-0.026;2023-02-12T04:38:09;103226.44;;;10.13;62.20
69223;BME280;56514;51.816;-0.026;2023-02-12T04:40:55;103226.38;;;10.14;61.85
69223;BME280;56514;51.816;-0.026;2023-02-12T04:43:41;103222.84;;;10.15;61.95
69223;BME280;56514;51.816;-0.026;2023-02-12T04:46:26;103217.50;;;10.17;62.19
69223;BME280;56514;51.816;-0.026;2023-02-12T04:49:14;103222.78;;;10.17;62.21
69223;BME280;56514;51.816;-0.026;2023-02-12T04:52:01;103231.63;;;10.16;62.38
69223;BME280;56514;51.816;-0.026;2023-02-12T04:54:46;103231.66;;;10.14;62.17
69223;BME280;56514;51.816;-0.026;2023-02-12T04:57:31;103236.91;;;10.16;61.99
69223;BME280;56514;51.816;-0.026;2023-02-12T05:00:16;103224.59;;;10.15;62.25
69223;BME280;56514;51.816;-0.026;2023-02-12T05:03:01;103226.44;;;10.13;62.58
69223;BME280;56514;51.816;-0.026;2023-02-12T05:05:46;103227.31;;;10.12;62.55
69223;BME280;56514;51.816;-0.026;2023-02-12T05:08:31;103222.88;;;10.14;62.53
69223;BME280;56514;51.816;-0.026;2023-02-12T05:11:16;103221.13;;;10.14;62.58
69223;BME280;56514;51.816;-0.026;2023-02-12T05:14:01;103223.72;;;10.16;62.56
69223;BME280;56514;51.816;-0.026;2023-02-12T05:16:45;103227.19;;;10.16;62.23
69223;BME280;56514;51.816;-0.026;2023-02-12T05:19:30;103218.34;;;10.19;62.30
69223;BME280;56514;51.816;-0.026;2023-02-12T05:22:16;103218.34;;;10.19;62.47
69223;BME280;56514;51.816;-0.026;2023-02-12T05:25:01;103219.19;;;10.19;62.50
69223;BME280;56514;51.816;-0.026;2023-02-12T05:27:45;103217.47;;;10.18;62.51
69223;BME280;56514;51.816;-0.026;2023-02-12T05:30:30;103217.50;;;10.17;62.15
69223;BME280;56514;51.816;-0.026;2023-02-12T05:33:15;103212.28;;;10.15;62.58
69223;BME280;56514;51.816;-0.026;2023-02-12T05:36:09;103219.31;;;10.15;62.51
69223;BME280;56514;51.816;-0.026;2023-02-12T05:38:57;103214.88;;;10.17;62.37
69223;BME280;56514;51.816;-0.026;2023-02-12T05:41:43;103211.31;;;10.18;62.30
69223;BME280;56514;51.816;-0.026;2023-02-12T05:44:28;103206.03;;;10.18;61.92
69223;BME280;56514;51.816;-0.026;2023-02-12T05:47:12;103216.00;;;10.08;62.48
69223;BME280;56514;51.816;-0.026;2023-02-12T05:49:57;103217.81;;;10.05;62.67
69223;BME280;56514;51.816;-0.026;2023-02-12T05:52:42;103215.22;;;10.03;62.80
69223;BME280;56514;51.816;-0.026;2023-02-12T05:55:27;103217.81;;;10.05;63.05
69223;BME280;56514;51.816;-0.026;2023-02-12T05:58:12;103215.19;;;10.05;62.60
69223;BME280;56514;51.816;-0.026;2023-02-12T06:00:57;103214.25;;;10.06;62.87
69223;BME280;56514;51.816;-0.026;2023-02-12T06:03:42;103213.44;;;10.04;62.85
69223;BME280;56514;51.816;-0.026;2023-02-12T06:06:31;103202.03;;;10.03;62.90
69223;BME280;56514;51.816;-0.026;2023-02-12T06:09:17;103209.91;;;10.05;62.74
69223;BME280;56514;51.816;-0.026;2023-02-12T06:12:03;103206.34;;;10.06;62.75
69223;BME280;56514;51.816;-0.026;2023-02-12T06:14:49;103210.72;;;10.08;62.56
69223;BME280;56514;51.816;-0.026;2023-02-12T06:17:34;103211.53;;;10.10;62.82
69223;BME280;56514;51.816;-0.026;2023-02-12T06:20:19;103208.03;;;10.10;62.99
69223;BME280;56514;51.816;-0.026;2023-02-12T06:23:04;103200.94;;;10.12;62.56
69223;BME280;56514;51.816;-0.026;2023-02-12T06:25:50;103208.84;;;10.12;62.90
69223;BME280;56514;51.816;-0.026;2023-02-12T06:28:38;103205.38;;;10.11;63.18
69223;BME280;56514;51.816;-0.026;2023-02-12T06:31:27;103208.03;;;10.10;62.96
69223;BME280;56514;51.816;-0.026;2023-02-12T06:34:13;103215.13;;;10.08;62.95
69223;BME280;56514;51.816;-0.026;2023-02-12T06:36:58;103211.56;;;10.09;62.73
69223;BME280;56514;51.816;-0.026;2023-02-12T06:39:43;103209.84;;;10.08;63.06
69223;BME280;56514;51.816;-0.026;2023-02-12T06:42:28;103206.28;;;10.09;62.80
69223;BME280;56514;51.816;-0.026;2023-02-12T06:45:13;103199.25;;;10.09;62.74
69223;BME280;56514;51.816;-0.026;2023-02-12T06:47:57;103204.53;;;10.09;62.59
69223;BME280;56514;51.816;-0.026;2023-02-12T06:50:42;103208.03;;;10.10;62.89
69223;BME280;56514;51.816;-0.026;2023-02-12T06:53:27;103214.25;;;10.07;62.77
69223;BME280;56514;51.816;-0.026;2023-02-12T06:56:12;103212.53;;;10.05;63.02
69223;BME280;56514;51.816;-0.026;2023-02-12T06:58:58;103205.53;;;10.04;62.78
69223;BME280;56514;51.816;-0.026;2023-02-12T07:01:44;103211.69;;;10.03;62.66
69223;BME280;56514;51.816;-0.026;2023-02-12T07:04:29;103206.47;;;10.01;62.82
69223;BME280;56514;51.816;-0.026;2023-02-12T07:07:15;103217.00;;;10.01;62.85
69223;BME280;56514;51.816;-0.026;2023-02-12T07:09:59;103217.06;;;10.00;62.72
69223;BME280;56514;51.816;-0.026;2023-02-12T07:12:45;103218.88;;;9.98;62.94
69223;BME280;56514;51.816;-0.026;2023-02-12T07:15:30;103218.88;;;9.98;62.99
69223;BME280;56514;51.816;-0.026;2023-02-12T07:18:15;103219.84;;;9.94;63.33
69223;BME280;56514;51.816;-0.026;2023-02-12T07:21:00;103223.44;;;9.91;63.13
69223;BME280;56514;51.816;-0.026;2023-02-12T07:23:46;103215.56;;;9.90;63.33
69223;BME280;56514;51.816;-0.026;2023-02-12T07:26:32;103220.00;;;9.88;63.36
69223;BME280;56514;51.816;-0.026;2023-02-12T07:29:17;103223.53;;;9.88;63.65
69223;BME280;56514;51.816;-0.026;2023-02-12T07:32:02;103228.78;;;9.88;63.45
69223;BME280;56514;51.816;-0.026;2023-02-12T07:34:47;103228.78;;;9.88;63.31
69223;BME280;56514;51.816;-0.026;2023-02-12T07:37:32;103240.22;;;9.89;63.20
69223;BME280;56514;51.816;-0.026;2023-02-12T07:40:17;103238.38;;;9.91;63.45
69223;BME280;56514;51.816;-0.026;2023-02-12T07:43:02;103236.56;;;9.94;63.15
69223;BME280;56514;51.816;-0.026;2023-02-12T07:45:47;103231.16;;;9.99;63.52
69223;BME280;56514;51.816;-0.026;2023-02-12T07:48:32;103237.28;;;10.01;63.17
69223;BME280;56514;51.816;-0.026;2023-02-12T07:51:17;103232.81;;;10.03;63.42
69223;BME280;56514;51.816;-0.026;2023-02-12T07:54:03;103225.69;;;10.06;63.63
69223;BME280;56514;51.816;-0.026;2023-02-12T07:56:49;103230.91;;;10.09;63.44
69223;BME280;56514;51.816;-0.026;2023-02-12T07:59:34;103230.00;;;10.10;63.12
69223;BME280;56514;51.816;-0.026;2023-02-12T08:02:19;103232.59;;;10.12;63.30
69223;BME280;56514;51.816;-0.026;2023-02-12T08:05:04;103233.44;;;10.14;63.18
69223;BME280;56514;51.816;-0.026;2023-02-12T08:07:49;103228.94;;;10.17;63.37
69223;BME280;56514;51.816;-0.026;2023-02-12T08:10:34;103233.25;;;10.20;63.13
69223;BME280;56514;51.816;-0.026;2023-02-12T08:13:19;103233.19;;;10.23;63.41
69223;BME280;56514;51.816;-0.026;2023-02-12T08:16:06;103225.19;;;10.26;63.25
69223;BME280;56514;51.816;-0.026;2023-02-12T08:18:52;103232.09;;;10.31;63.32
69223;BME280;56514;51.816;-0.026;2023-02-12T08:21:37;103238.13;;;10.35;62.97
69223;BME280;56514;51.816;-0.026;2023-02-12T08:24:23;103245.16;;;10.36;62.87
69223;BME280;56514;51.816;-0.026;2023-02-12T08:27:11;103243.31;;;10.38;63.11
69223;BME280;56514;51.816;-0.026;2023-02-12T08:29:56;103235.31;;;10.41;62.93
69223;BME280;56514;51.816;-0.026;2023-02-12T08:32:41;103243.16;;;10.44;63.17
69223;BME280;56514;51.816;-0.026;2023-02-12T08:35:25;103248.34;;;10.47;62.63
69223;BME280;56514;51.816;-0.026;2023-02-12T08:38:11;103244.81;;;10.48;62.76
69223;BME280;56514;51.816;-0.026;2023-02-12T08:40:59;103242.94;;;10.51;62.82
69223;BME280;56514;51.816;-0.026;2023-02-12T08:43:45;103246.41;;;10.53;62.72
69223;BME280;56514;51.816;-0.026;2023-02-12T08:46:35;103249.78;;;10.58;62.91
69223;BME280;56514;51.816;-0.026;2023-02-12T08:49:22;103249.66;;;10.63;62.81
69223;BME280;56514;51.816;-0.026;2023-02-12T08:52:07;103256.56;;;10.67;62.87
69223;BME280;56514;51.816;-0.026;2023-02-12T08:54:52;103249.41;;;10.72;63.03
69223;BME280;56514;51.816;-0.026;2023-02-12T08:57:37;103248.41;;;10.76;62.74
69223;BME280;56514;51.816;-0.026;2023-02-12T09:00:22;103250.00;;;10.82;62.65
69223;BME280;56514;51.816;-0.026;2023-02-12T09:03:07;103257.75;;;10.88;62.84
69223;BME280;56514;51.816;-0.026;2023-02-12T09:05:52;103256.78;;;10.90;62.42
69223;BME280;56514;51.816;-0.026;2023-02-12T09:08:38;103255.72;;;10.96;62.14
69223;BME280;56514;51.816;-0.026;2023-02-12T09:11:25;103257.41;;;11.00;62.08
69223;BME280;56514;51.816;-0.026;2023-02-12T09:14:16;103256.28;;;11.07;62.10
69223;BME280;56514;51.816;-0.026;2023-02-12T09:17:01;103250.78;;;11.14;62.10
69223;BME280;56514;51.816;-0.026;2023-02-12T09:19:46;103248.91;;;11.18;61.96
69223;BME280;56514;51.816;-0.026;2023-02-12T09:22:31;103253.00;;;11.28;61.98
69223;BME280;56514;51.816;-0.026;2023-02-12T09:25:15;103255.28;;;11.38;61.88
69223;BME280;56514;51.816;-0.026;2023-02-12T09:28:01;103254.94;;;11.50;61.94
69223;BME280;56514;51.816;-0.026;2023-02-12T09:30:46;103248.53;;;11.57;61.46
69223;BME280;56514;51.816;-0.026;2023-02-12T09:33:31;103253.50;;;11.68;61.60
69223;BME280;56514;51.816;-0.026;2023-02-12T09:36:16;103255.75;;;11.80;61.34
69223;BME280;56514;51.816;-0.026;2023-02-12T09:39:01;103251.59;;;11.99;61.06
69223;BME280;56514;51.816;-0.026;2023-02-12T09:51:13;103258.44;;;12.78;59.54
69223;BME280;56514;51.816;-0.026;2023-02-12T09:54:06;103254.34;;;12.93;59.21
69223;BME280;56514;51.816;-0.026;2023-02-12T09:56:58;103251.09;;;13.09;59.07
69223;BME280;56514;51.816;-0.026;2023-02-12T09:59:51;103254.78;;;13.28;58.52
69223;BME280;56514;51.816;-0.026;2023-02-12T10:02:39;103254.28;;;13.40;58.25
69223;BME280;56514;51.816;-0.026;2023-02-12T10:05:28;103256.63;;;13.48;57.76
69223;BME280;56514;51.816;-0.026;2023-02-12T10:14:29;103252.78;;;13.12;57.41
69223;BME280;56514;51.816;-0.026;2023-02-12T10:20:28;103248.59;;;13.28;57.46
69223;BME280;56514;51.816;-0.026;2023-02-12T10:23:34;103247.41;;;13.35;57.42
69223;BME280;56514;51.816;-0.026;2023-02-12T10:26:43;103250.06;;;13.35;57.52
69223;BME280;56514;51.816;-0.026;2023-02-12T10:29:37;103245.63;;;13.35;57.36
69223;BME280;56514;51.816;-0.026;2023-02-12T10:32:27;103253.47;;;13.38;57.51
69223;BME280;56514;51.816;-0.026;2023-02-12T10:35:15;103247.16;;;13.41;57.43
69223;BME280;56514;51.816;-0.026;2023-02-12T10:38:05;103250.44;;;13.47;57.17
69223;BME280;56514;51.816;-0.026;2023-02-12T10:40:51;103252.84;;;13.53;57.19
69223;BME280;56514;51.816;-0.026;2023-02-12T10:43:38;103244.59;;;13.61;57.38
69223;BME280;56514;51.816;-0.026;2023-02-12T10:46:23;103254.09;;;13.66;57.19
69223;BME280;56514;51.816;-0.026;2023-02-12T10:49:12;103261.19;;;13.66;56.83
69223;BME280;56514;51.816;-0.026;2023-02-12T10:52:09;103259.34;;;13.68;56.96
69223;BME280;56514;51.816;-0.026;2023-02-12T10:54:56;103260.13;;;13.70;56.61
69223;BME280;56514;51.816;-0.026;2023-02-12T10:57:41;103259.28;;;13.69;56.60
69223;BME280;56514;51.816;-0.026;2023-02-12T11:00:33;103254.88;;;13.68;57.05
69223;BME280;56514;51.816;-0.026;2023-02-12T11:03:21;103257.91;;;13.81;56.50
69223;BME280;56514;51.816;-0.026;2023-02-12T11:06:24;103252.97;;;13.93;56.70
69223;BME280;56514;51.816;-0.026;2023-02-12T11:09:26;103249.50;;;13.91;56.33
69223;BME280;56514;51.816;-0.026;2023-02-12T11:15:24;103252.16;;;13.70;56.83
69223;BME280;56514;51.816;-0.026;2023-02-12T11:18:22;103244.72;;;13.58;56.99
69223;BME280;56514;51.816;-0.026;2023-02-12T11:21:11;103242.81;;;13.40;57.35
69223;BME280;56514;51.816;-0.026;2023-02-12T11:23:56;103242.91;;;13.15;57.52
69223;BME280;56514;51.816;-0.026;2023-02-12T11:26:41;103242.81;;;12.94;57.86
69223;BME280;56514;51.816;-0.026;2023-02-12T11:29:26;103253.22;;;12.77;58.51
69223;BME280;56514;51.816;-0.026;2023-02-12T11:32:19;103241.53;;;12.58;58.75
69223;BME280;56514;51.816;-0.026;2023-02-12T11:35:23;103235.72;;;12.48;59.24
69223;BME280;56514;51.816;-0.026;2023-02-12T11:38:22;103230.31;;;12.51;59.69
69223;BME280;56514;51.816;-0.026;2023-02-12T11:41:38;103225.44;;;12.64;59.91
69223;BME280;56514;51.816;-0.026;2023-02-12T11:44:29;103221.41;;;12.77;59.60
69223;BME280;56514;51.816;-0.026;2023-02-12T11:47:28;103224.78;;;12.80;59.53
69223;BME280;56514;51.816;-0.026;2023-02-12T11:50:32;103229.38;;;12.77;59.50
69223;BME280;56514;51.816;-0.026;2023-02-12T11:56:14;103224.00;;;12.78;59.56
69223;BME280;56514;51.816;-0.026;2023-02-12T11:59:11;103215.72;;;12.87;59.62
69223;BME280;56514;51.816;-0.026;2023-02-12T12:05:05;103214.91;;;13.08;59.54
69223;BME280;56514;51.816;-0.026;2023-02-12T12:07:56;103214.56;;;13.17;59.18
69223;BME280;56514;51.816;-0.026;2023-02-12T12:10:48;103216.78;;;13.28;59.10
69223;BME280;56514;51.816;-0.026;2023-02-12T12:13:45;103222.09;;;13.28;58.93
69223;BME280;56514;51.816;-0.026;2023-02-12T12:16:47;103218.78;;;13.21;58.95
69223;BME280;56514;51.816;-0.026;2023-02-12T12:20:11;103214.03;;;13.08;59.17
69223;BME280;56514;51.816;-0.026;2023-02-12T12:25:50;103216.78;;;12.82;59.31
69223;BME280;56514;51.816;-0.026;2023-02-12T12:29:06;103211.16;;;12.68;59.83
69223;BME280;56514;51.816;-0.026;2023-02-12T12:31:59;103205.41;;;12.57;60.09
69223;BME280;56514;51.816;-0.026;2023-02-12T12:34:46;103202.88;;;12.54;60.35
69223;BME280;56514;51.816;-0.026;2023-02-12T13:24:48;103167.28;;;12.84;59.87
69223;BME280;56514;51.816;-0.026;2023-02-12T13:27:38;103160.56;;;12.75;60.02
69223;BME280;56514;51.816;-0.026;2023-02-12T13:30:37;103160.03;;;12.66;59.85
69223;BME280;56514;51.816;-0.026;2023-02-12T13:33:36;103153.28;;;12.57;60.17
69223;BME280;56514;51.816;-0.026;2023-02-12T13:36:23;103156.22;;;12.50;59.93
69223;BME280;56514;51.816;-0.026;2023-02-12T13:39:17;103154.63;;;12.46;60.25
69223;BME280;56514;51.816;-0.026;2023-02-12T13:44:54;103151.38;;;12.37;60.36
69223;BME280;56514;51.816;-0.026;2023-02-12T13:47:55;103149.88;;;12.30;60.44
69223;BME280;56514;51.816;-0.026;2023-02-12T13:51:48;103147.31;;;12.29;60.53
69223;BME280;56514;51.816;-0.026;2023-02-12T13:57:13;103143.59;;;12.33;60.42
69223;BME280;56514;51.816;-0.026;2023-02-12T13:59:58;103130.31;;;12.34;60.81
69223;BME280;56514;51.816;-0.026;2023-02-12T14:02:45;103142.66;;;12.35;60.50
69223;BME280;56514;51.816;-0.026;2023-02-12T14:05:32;103133.84;;;12.35;60.53
69223;BME280;56514;51.816;-0.026;2023-02-12T14:08:40;103127.66;;;12.34;60.69
69223;BME280;56514;51.816;-0.026;2023-02-12T14:11:26;103120.59;;;12.35;60.67
69223;BME280;56514;51.816;-0.026;2023-02-12T14:14:11;103117.06;;;12.34;60.56
69223;BME280;56514;51.816;-0.026;2023-02-12T14:16:57;103126.66;;;12.38;60.81
69223;BME280;56514;51.816;-0.026;2023-02-12T14:23:24;103114.03;;;12.45;60.64
69223;BME280;56514;51.816;-0.026;2023-02-12T14:26:18;103117.44;;;12.49;60.42
69223;BME280;56514;51.816;-0.026;2023-02-12T14:29:14;103110.38;;;12.49;60.33
69223;BME280;56514;51.816;-0.026;2023-02-12T14:32:02;103105.84;;;12.51;60.53
69223;BME280;56514;51.816;-0.026;2023-02-12T14:34:47;103107.59;;;12.52;60.53
69223;BME280;56514;51.816;-0.026;2023-02-12T14:37:34;103104.06;;;12.52;60.36
69223;BME280;56514;51.816;-0.026;2023-02-12T14:43:28;103105.19;;;12.46;60.56
69223;BME280;56514;51.816;-0.026;2023-02-12T14:49:35;103106.19;;;12.42;60.28
69223;BME280;56514;51.816;-0.026;2023-02-12T14:52:25;103097.66;;;12.35;60.87
69223;BME280;56514;51.816;-0.026;2023-02-12T14:55:27;103098.56;;;12.34;60.45
69223;BME280;56514;51.816;-0.026;2023-02-12T14:58:18;103094.88;;;12.38;60.72
69223;BME280;56514;51.816;-0.026;2023-02-12T15:01:04;103095.63;;;12.42;60.77
69223;BME280;56514;51.816;-0.026;2023-02-12T15:03:53;103093.84;;;12.43;60.64
69223;BME280;56514;51.816;-0.026;2023-02-12T15:06:44;103094.78;;;12.42;60.83
69223;BME280;56514;51.816;-0.026;2023-02-12T15:09:41;103091.13;;;12.44;60.79
69223;BME280;56514;51.816;-0.026;2023-02-12T15:12:44;103090.13;;;12.47;60.79
69223;BME280;56514;51.816;-0.026;2023-02-12T15:15:36;103092.91;;;12.43;60.61
69223;BME280;56514;51.816;-0.026;2023-02-12T15:18:27;103085.13;;;12.39;60.92
69223;BME280;56514;51.816;-0.026;2023-02-12T15:21:24;103080.19;;;12.30;60.81
69223;BME280;56514;51.816;-0.026;2023-02-12T15:24:12;103082.13;;;12.26;61.03
69223;BME280;56514;51.816;-0.026;2023-02-12T15:26:58;103078.78;;;12.21;61.25
69223;BME280;56514;51.816;-0.026;2023-02-12T15:29:47;103075.44;;;12.16;61.27
69223;BME280;56514;51.816;-0.026;2023-02-12T15:32:35;103072.03;;;12.13;61.46
69223;BME280;56514;51.816;-0.026;2023-02-12T15:35:27;103065.06;;;12.10;61.71
69223;BME280;56514;51.816;-0.026;2023-02-12T15:38:22;103061.59;;;12.08;61.53
69223;BME280;56514;51.816;-0.026;2023-02-12T15:47:12;103064.72;;;11.96;62.01
69223;BME280;56514;51.816;-0.026;2023-02-12T15:49:58;103064.03;;;11.91;61.78
69223;BME280;56514;51.816;-0.026;2023-02-12T15:52:45;103054.53;;;11.86;62.08
69223;BME280;56514;51.816;-0.026;2023-02-12T15:55:35;103063.44;;;11.83;62.33
69223;BME280;56514;51.816;-0.026;2023-02-12T15:59:14;103059.22;;;11.78;62.25
69223;BME280;56514;51.816;-0.026;2023-02-12T16:01:34;103055.19;;;11.68;62.66
69223;BME280;56514;51.816;-0.026;2023-02-12T16:04:18;103054.41;;;11.64;62.40
69223;BME280;56514;51.816;-0.026;2023-02-12T16:07:03;103043.91;;;11.61;62.80
69223;BME280;56514;51.816;-0.026;2023-02-12T16:09:50;103052.72;;;11.62;62.55
69223;BME280;56514;51.816;-0.026;2023-02-12T16:12:36;103050.19;;;11.59;62.71
69223;BME280;56514;51.816;-0.026;2023-02-12T16:15:29;103048.44;;;11.59;62.76
69223;BME280;56514;51.816;-0.026;2023-02-12T16:18:22;103052.94;;;11.56;62.77
69223;BME280;56514;51.816;-0.026;2023-02-12T16:21:19;103052.19;;;11.52;63.10
69223;BME280;56514;51.816;-0.026;2023-02-12T16:24:24;103059.38;;;11.49;63.47
69223;BME280;56514;51.816;-0.026;2023-02-12T16:30:55;103051.56;;;11.44;63.34
69223;BME280;56514;51.816;-0.026;2023-02-12T16:39:05;103043.19;;;11.33;63.78
69223;BME280;56514;51.816;-0.026;2023-02-12T16:41:55;103051.25;;;11.29;64.02
69223;BME280;56514;51.816;-0.026;2023-02-12T16:44:40;103050.50;;;11.25;64.35
69223;BME280;56514;51.816;-0.026;2023-02-12T16:47:26;103051.41;;;11.24;64.30
69223;BME280;56514;51.816;-0.026;2023-02-12T16:50:14;103057.59;;;11.23;64.27
69223;BME280;56514;51.816;-0.026;2023-02-12T16:53:01;103052.41;;;11.20;64.47
69223;BME280;56514;51.816;-0.026;2023-02-12T16:55:48;103056.03;;;11.18;64.50
69223;BME280;56514;51.816;-0.026;2023-02-12T16:58:34;103058.72;;;11.16;64.73
69223;BME280;56514;51.816;-0.026;2023-02-12T17:01:31;103060.53;;;11.14;64.66
69223;BME280;56514;51.816;-0.026;2023-02-12T17:04:16;103061.53;;;11.12;64.94
69223;BME280;56514;51.816;-0.026;2023-02-12T17:07:01;103064.31;;;11.07;64.92
69223;BME280;56514;51.816;-0.026;2023-02-12T17:09:46;103066.13;;;11.05;64.93
69223;BME280;56514;51.816;-0.026;2023-02-12T17:12:31;103064.53;;;11.01;65.02
69223;BME280;56514;51.816;-0.026;2023-02-12T17:15:22;103062.81;;;10.99;65.21